sensor_id;sensor_type;location;lat;lon;timestamp;P1;durP1;ratioP1;P2;durP2;ratioP2
44366;SDS011;30086;57.660;12.000;2024-02-15T00:01:09;31.27;;;13.20;;
44366;SDS011;30086;57.660;12.000;2024-02-15T00:03:38;36.05;;;13.50;;
44366;SDS011;30086;57.660;12.000;2024-02-15T00:06:11;34.03;;;12.98;;
44366;SDS011;30086;57.660;12.000;2024-02-15T00:08:43;29.85;;;13.85;;
44366;SDS011;30086;57.660;12.000;2024-02-15T00:11:30;39.95;;;14.50;;
44366;SDS011;30086;57.660;12.000;2024-02-15T00:14:05;38.03;;;14.63;;
44366;SDS011;30086;57.660;12.000;2024-02-15T00:16:46;34.13;;;14.07;;
44366;SDS011;30086;57.660;12.000;2024-02-15T00:19:52;40.05;;;15.40;;
44366;SDS011;30086;57.660;12.000;2024-02-15T00:22:45;32.80;;;13.50;;
44366;SDS011;30086;57.660;12.000;2024-02-15T00:25:54;40.35;;;14.23;;
44366;SDS011;30086;57.660;12.000;2024-02-15T00:28:27;38.33;;;14.27;;
44366;SDS011;30086;57.660;12.000;2024-02-15T00:30:56;39.47;;;15.35;;
44366;SDS011;30086;57.660;12.000;2024-02-15T00:33:44;39.88;;;15.93;;
44366;SDS011;30086;57.660;12.000;2024-02-15T00:36:31;38.20;;;14.80;;
44366;SDS011;30086;57.660;12.000;2024-02-15T00:39:11;42.28;;;15.77;;
44366;SDS011;30086;57.660;12.000;2024-02-15T00:41:47;34.35;;;15.07;;
44366;SDS011;30086;57.660;12.000;2024-02-15T00:44:17;38.83;;;14.50;;
44366;SDS011;30086;57.660;12.000;2024-02-15T00:46:54;37.72;;;15.55;;
44366;SDS011;30086;57.660;12.000;2024-02-15T00:49:58;40.60;;;15.43;;
44366;SDS011;30086;57.660;12.000;2024-02-15T00:52:27;43.40;;;16.17;;
44366;SDS011;30086;57.660;12.000;2024-02-15T00:57:53;44.40;;;16.55;;
44366;SDS011;30086;57.660;12.000;2024-02-15T01:00:36;36.70;;;14.75;;
44366;SDS011;30086;57.660;12.000;2024-02-15T01:03:35;41.00;;;15.93;;
44366;SDS011;30086;57.660;12.000;2024-02-15T01:06:22;45.58;;;15.93;;
44366;SDS011;30086;57.660;12.000;2024-02-15T01:08:52;34.17;;;14.13;;
44366;SDS011;30086;57.660;12.000;2024-02-15T01:11:39;38.42;;;15.93;;
44366;SDS011;30086;57.660;12.000;2024-02-15T01:14:17;37.40;;;14.38;;
44366;SDS011;30086;57.660;12.000;2024-02-15T01:16:45;38.63;;;15.45;;
44366;SDS011;30086;57.660;12.000;2024-02-15T01:19:31;38.60;;;14.93;;
44366;SDS011;30086;57.660;12.000;2024-02-15T01:22:11;35.63;;;13.93;;
44366;SDS011;30086;57.660;12.000;2024-02-15T01:24:45;39.70;;;14.55;;
44366;SDS011;30086;57.660;12.000;2024-02-15T01:27:47;36.20;;;14.43;;
44366;SDS011;30086;57.660;12.000;2024-02-15T01:30:30;34.80;;;13.15;;
44366;SDS011;30086;57.660;12.000;2024-02-15T01:33:20;35.55;;;14.40;;
44366;SDS011;30086;57.660;12.000;2024-02-15T01:35:53;33.05;;;13.05;;
44366;SDS011;30086;57.660;12.000;2024-02-15T01:38:22;28.45;;;13.60;;
44366;SDS011;30086;57.660;12.000;2024-02-15T01:40:56;30.92;;;13.73;;
44366;SDS011;30086;57.660;12.000;2024-02-15T01:43:25;29.77;;;13.27;;
44366;SDS011;30086;57.660;12.000;2024-02-15T01:49:08;29.48;;;13.20;;
44366;SDS011;30086;57.660;12.000;2024-02-15T01:51:36;35.83;;;14.07;;
44366;SDS011;30086;57.660;12.000;2024-02-15T01:54:25;27.10;;;11.27;;
44366;SDS011;30086;57.660;12.000;2024-02-15T01:57:14;26.25;;;11.50;;
44366;SDS011;30086;57.660;12.000;2024-02-15T01:59:45;29.60;;;13.00;;
44366;SDS011;30086;57.660;12.000;2024-02-15T02:02:20;28.08;;;12.73;;
44366;SDS011;30086;57.660;12.000;2024-02-15T02:05:10;29.85;;;12.45;;
44366;SDS011;30086;57.660;12.000;2024-02-15T02:07:38;26.50;;;12.25;;
44366;SDS011;30086;57.660;12.000;2024-02-15T02:10:26;28.33;;;12.52;;
44366;SDS011;30086;57.660;12.000;2024-02-15T02:12:58;23.80;;;11.52;;
44366;SDS011;30086;57.660;12.000;2024-02-15T02:15:44;29.95;;;12.05;;
44366;SDS011;30086;57.660;12.000;2024-02-15T02:18:27;23.65;;;11.60;;
44366;SDS011;30086;57.660;12.000;2024-02-15T02:20:54;22.55;;;12.15;;
44366;SDS011;30086;57.660;12.000;2024-02-15T02:23:44;22.55;;;11.00;;
44366;SDS011;30086;57.660;12.000;2024-02-15T02:26:21;23.77;;;11.02;;
44366;SDS011;30086;57.660;12.000;2024-02-15T02:28:52;20.98;;;11.32;;
44366;SDS011;30086;57.660;12.000;2024-02-15T02:31:20;24.02;;;11.52;;
44366;SDS011;30086;57.660;12.000;2024-02-15T02:34:26;22.27;;;11.20;;
44366;SDS011;30086;57.660;12.000;2024-02-15T02:37:12;18.25;;;10.27;;
44366;SDS011;30086;57.660;12.000;2024-02-15T02:40:01;20.17;;;10.48;;
44366;SDS011;30086;57.660;12.000;2024-02-15T02:42:28;19.90;;;10.98;;
44366;SDS011;30086;57.660;12.000;2024-02-15T02:44:54;21.48;;;11.23;;
44366;SDS011;30086;57.660;12.000;2024-02-15T02:47:21;20.52;;;10.98;;
44366;SDS011;30086;57.660;12.000;2024-02-15T02:49:49;20.73;;;10.68;;
44366;SDS011;30086;57.660;12.000;2024-02-15T02:52:20;21.13;;;11.02;;
44366;SDS011;30086;57.660;12.000;2024-02-15T02:54:47;17.65;;;10.30;;
44366;SDS011;30086;57.660;12.000;2024-02-15T02:57:37;18.27;;;10.38;;
44366;SDS011;30086;57.660;12.000;2024-02-15T03:00:07;16.83;;;9.90;;
44366;SDS011;30086;57.660;12.000;2024-02-15T03:02:36;19.27;;;10.35;;
44366;SDS011;30086;57.660;12.000;2024-02-15T03:05:06;21.02;;;9.93;;
44366;SDS011;30086;57.660;12.000;2024-02-15T03:07:33;19.33;;;11.02;;
44366;SDS011;30086;57.660;12.000;2024-02-15T03:10:08;16.63;;;10.30;;
44366;SDS011;30086;57.660;12.000;2024-02-15T03:12:39;18.02;;;9.95;;
44366;SDS011;30086;57.660;12.000;2024-02-15T03:15:14;20.48;;;10.68;;
44366;SDS011;30086;57.660;12.000;2024-02-15T03:17:41;17.70;;;9.82;;
44366;SDS011;30086;57.660;12.000;2024-02-15T03:20:10;19.77;;;10.90;;
44366;SDS011;30086;57.660;12.000;2024-02-15T03:22:54;19.63;;;9.75;;
44366;SDS011;30086;57.660;12.000;2024-02-15T03:25:34;16.65;;;9.70;;
44366;SDS011;30086;57.660;12.000;2024-02-15T03:28:21;16.55;;;9.30;;
44366;SDS011;30086;57.660;12.000;2024-02-15T03:31:19;19.15;;;10.60;;
44366;SDS011;30086;57.660;12.000;2024-02-15T03:34:05;18.58;;;10.82;;
44366;SDS011;30086;57.660;12.000;2024-02-15T03:36:54;18.45;;;10.52;;
44366;SDS011;30086;57.660;12.000;2024-02-15T03:39:23;16.73;;;10.07;;
44366;SDS011;30086;57.660;12.000;2024-02-15T03:41:55;16.75;;;9.90;;
44366;SDS011;30086;57.660;12.000;2024-02-15T03:44:35;16.58;;;9.55;;
44366;SDS011;30086;57.660;12.000;2024-02-15T03:47:06;16.33;;;9.73;;
44366;SDS011;30086;57.660;12.000;2024-02-15T03:49:35;19.73;;;10.63;;
44366;SDS011;30086;57.660;12.000;2024-02-15T03:52:05;20.63;;;10.80;;
44366;SDS011;30086;57.660;12.000;2024-02-15T03:54:41;16.83;;;10.50;;
44366;SDS011;30086;57.660;12.000;2024-02-15T03:57:08;17.85;;;9.93;;
44366;SDS011;30086;57.660;12.000;2024-02-15T03:59:56;17.05;;;9.98;;
44366;SDS011;30086;57.660;12.000;2024-02-15T04:02:24;17.45;;;10.27;;
44366;SDS011;30086;57.660;12.000;2024-02-15T04:04:56;17.70;;;9.93;;
44366;SDS011;30086;57.660;12.000;2024-02-15T04:07:26;15.02;;;10.00;;
44366;SDS011;30086;57.660;12.000;2024-02-15T04:10:22;18.88;;;11.30;;
44366;SDS011;30086;57.660;12.000;2024-02-15T04:12:53;21.00;;;10.98;;
44366;SDS011;30086;57.660;12.000;2024-02-15T04:15:39;19.45;;;10.00;;
44366;SDS011;30086;57.660;12.000;2024-02-15T04:18:11;24.45;;;12.05;;
44366;SDS011;30086;57.660;12.000;2024-02-15T04:20:39;22.77;;;12.05;;
44366;SDS011;30086;57.660;12.000;2024-02-15T04:23:25;21.80;;;11.55;;
44366;SDS011;30086;57.660;12.000;2024-02-15T04:26:11;23.90;;;11.98;;
44366;SDS011;30086;57.660;12.000;2024-02-15T04:28:44;23.50;;;11.57;;
44366;SDS011;30086;57.660;12.000;2024-02-15T04:31:13;22.23;;;11.93;;
44366;SDS011;30086;57.660;12.000;2024-02-15T04:33:48;25.58;;;12.75;;
44366;SDS011;30086;57.660;12.000;2024-02-15T04:36:34;26.92;;;13.38;;
44366;SDS011;30086;57.660;12.000;2024-02-15T04:39:01;24.58;;;13.25;;
44366;SDS011;30086;57.660;12.000;2024-02-15T04:41:40;25.70;;;13.38;;
44366;SDS011;30086;57.660;12.000;2024-02-15T04:44:39;27.58;;;13.65;;
44366;SDS011;30086;57.660;12.000;2024-02-15T04:47:07;25.58;;;13.27;;
44366;SDS011;30086;57.660;12.000;2024-02-15T04:50:16;21.40;;;11.40;;
44366;SDS011;30086;57.660;12.000;2024-02-15T04:52:46;28.83;;;13.68;;
44366;SDS011;30086;57.660;12.000;2024-02-15T04:55:30;26.00;;;14.18;;
44366;SDS011;30086;57.660;12.000;2024-02-15T04:58:16;23.75;;;13.10;;
44366;SDS011;30086;57.660;12.000;2024-02-15T05:01:02;27.52;;;13.57;;
44366;SDS011;30086;57.660;12.000;2024-02-15T05:03:31;25.25;;;13.30;;
44366;SDS011;30086;57.660;12.000;2024-02-15T05:06:01;28.50;;;13.88;;
44366;SDS011;30086;57.660;12.000;2024-02-15T05:08:50;29.77;;;14.48;;
44366;SDS011;30086;57.660;12.000;2024-02-15T05:11:54;29.77;;;15.02;;
44366;SDS011;30086;57.660;12.000;2024-02-15T05:14:43;27.48;;;12.95;;
44366;SDS011;30086;57.660;12.000;2024-02-15T05:17:13;27.75;;;14.20;;
44366;SDS011;30086;57.660;12.000;2024-02-15T05:19:39;28.70;;;14.70;;
44366;SDS011;30086;57.660;12.000;2024-02-15T05:22:09;28.25;;;14.48;;
44366;SDS011;30086;57.660;12.000;2024-02-15T05:24:39;30.67;;;15.15;;
44366;SDS011;30086;57.660;12.000;2024-02-15T05:27:08;30.70;;;14.52;;
44366;SDS011;30086;57.660;12.000;2024-02-15T05:29:35;26.85;;;13.70;;
44366;SDS011;30086;57.660;12.000;2024-02-15T05:32:05;32.88;;;15.25;;
44366;SDS011;30086;57.660;12.000;2024-02-15T05:34:53;30.92;;;13.13;;
44366;SDS011;30086;57.660;12.000;2024-02-15T05:37:24;32.38;;;15.15;;
44366;SDS011;30086;57.660;12.000;2024-02-15T05:39:50;30.23;;;14.45;;
44366;SDS011;30086;57.660;12.000;2024-02-15T05:42:22;34.45;;;16.23;;
44366;SDS011;30086;57.660;12.000;2024-02-15T05:44:50;33.85;;;15.45;;
44366;SDS011;30086;57.660;12.000;2024-02-15T05:47:18;33.08;;;15.02;;
44366;SDS011;30086;57.660;12.000;2024-02-15T05:49:45;34.35;;;15.98;;
44366;SDS011;30086;57.660;12.000;2024-02-15T05:52:12;31.73;;;14.75;;
44366;SDS011;30086;57.660;12.000;2024-02-15T05:54:38;33.00;;;15.35;;
44366;SDS011;30086;57.660;12.000;2024-02-15T05:57:14;28.08;;;14.63;;
44366;SDS011;30086;57.660;12.000;2024-02-15T06:00:03;26.42;;;14.98;;
44366;SDS011;30086;57.660;12.000;2024-02-15T06:02:32;30.45;;;16.02;;
44366;SDS011;30086;57.660;12.000;2024-02-15T06:04:58;26.38;;;13.98;;
44366;SDS011;30086;57.660;12.000;2024-02-15T06:07:31;32.97;;;15.32;;
44366;SDS011;30086;57.660;12.000;2024-02-15T06:09:58;28.90;;;14.50;;
44366;SDS011;30086;57.660;12.000;2024-02-15T06:12:28;24.55;;;13.43;;
44366;SDS011;30086;57.660;12.000;2024-02-15T06:15:07;30.38;;;14.27;;
44366;SDS011;30086;57.660;12.000;2024-02-15T06:17:53;34.90;;;15.23;;
44366;SDS011;30086;57.660;12.000;2024-02-15T06:20:22;27.20;;;14.70;;
44366;SDS011;30086;57.660;12.000;2024-02-15T06:23:17;28.05;;;13.70;;
44366;SDS011;30086;57.660;12.000;2024-02-15T06:25:51;27.92;;;14.20;;
44366;SDS011;30086;57.660;12.000;2024-02-15T06:28:41;28.38;;;14.00;;
44366;SDS011;30086;57.660;12.000;2024-02-15T06:34:31;26.27;;;12.95;;
44366;SDS011;30086;57.660;12.000;2024-02-15T06:37:34;26.83;;;13.88;;
44366;SDS011;30086;57.660;12.000;2024-02-15T06:40:19;28.15;;;14.77;;
44366;SDS011;30086;57.660;12.000;2024-02-15T06:42:50;30.42;;;13.75;;
44366;SDS011;30086;57.660;12.000;2024-02-15T06:45:16;29.75;;;14.02;;
44366;SDS011;30086;57.660;12.000;2024-02-15T06:47:43;28.85;;;13.88;;
44366;SDS011;30086;57.660;12.000;2024-02-15T06:50:29;29.88;;;14.07;;
44366;SDS011;30086;57.660;12.000;2024-02-15T06:52:57;27.10;;;14.48;;
44366;SDS011;30086;57.660;12.000;2024-02-15T06:55:33;28.13;;;13.85;;
44366;SDS011;30086;57.660;12.000;2024-02-15T06:58:02;27.50;;;14.63;;
44366;SDS011;30086;57.660;12.000;2024-02-15T07:00:41;30.70;;;14.70;;
44366;SDS011;30086;57.660;12.000;2024-02-15T07:03:08;27.70;;;14.90;;
44366;SDS011;30086;57.660;12.000;2024-02-15T07:05:35;27.90;;;13.60;;
44366;SDS011;30086;57.660;12.000;2024-02-15T07:08:05;28.38;;;14.75;;
44366;SDS011;30086;57.660;12.000;2024-02-15T07:10:53;28.50;;;14.50;;
44366;SDS011;30086;57.660;12.000;2024-02-15T07:13:20;29.63;;;13.95;;
44366;SDS011;30086;57.660;12.000;2024-02-15T07:15:48;26.70;;;13.73;;
44366;SDS011;30086;57.660;12.000;2024-02-15T07:18:17;26.33;;;14.00;;
44366;SDS011;30086;57.660;12.000;2024-02-15T07:20:47;27.73;;;13.88;;
44366;SDS011;30086;57.660;12.000;2024-02-15T07:23:13;25.88;;;13.68;;
44366;SDS011;30086;57.660;12.000;2024-02-15T07:25:55;29.20;;;13.88;;
44366;SDS011;30086;57.660;12.000;2024-02-15T07:28:22;28.48;;;14.07;;
44366;SDS011;30086;57.660;12.000;2024-02-15T07:30:53;29.42;;;14.88;;
44366;SDS011;30086;57.660;12.000;2024-02-15T07:34:04;28.33;;;14.43;;
44366;SDS011;30086;57.660;12.000;2024-02-15T07:36:51;32.05;;;14.70;;
44366;SDS011;30086;57.660;12.000;2024-02-15T07:39:27;31.48;;;14.18;;
44366;SDS011;30086;57.660;12.000;2024-02-15T07:42:09;29.52;;;13.25;;
44366;SDS011;30086;57.660;12.000;2024-02-15T07:44:49;24.40;;;12.63;;
44366;SDS011;30086;57.660;12.000;2024-02-15T07:47:37;25.77;;;13.32;;
44366;SDS011;30086;57.660;12.000;2024-02-15T07:50:24;29.42;;;13.60;;
44366;SDS011;30086;57.660;12.000;2024-02-15T07:53:18;25.50;;;13.70;;
44366;SDS011;30086;57.660;12.000;2024-02-15T07:55:45;26.90;;;13.95;;
44366;SDS011;30086;57.660;12.000;2024-02-15T07:58:11;26.27;;;13.10;;
44366;SDS011;30086;57.660;12.000;2024-02-15T08:00:56;26.38;;;13.63;;
44366;SDS011;30086;57.660;12.000;2024-02-15T08:03:23;28.23;;;13.23;;
44366;SDS011;30086;57.660;12.000;2024-02-15T08:05:52;28.67;;;15.00;;
44366;SDS011;30086;57.660;12.000;2024-02-15T08:08:18;35.20;;;13.88;;
44366;SDS011;30086;57.660;12.000;2024-02-15T08:11:11;27.40;;;13.27;;
44366;SDS011;30086;57.660;12.000;2024-02-15T08:13:47;29.95;;;14.15;;
44366;SDS011;30086;57.660;12.000;2024-02-15T08:16:19;20.35;;;12.43;;
44366;SDS011;30086;57.660;12.000;2024-02-15T08:19:06;24.88;;;12.80;;
44366;SDS011;30086;57.660;12.000;2024-02-15T08:21:34;22.70;;;13.18;;
44366;SDS011;30086;57.660;12.000;2024-02-15T08:24:10;24.50;;;12.55;;
44366;SDS011;30086;57.660;12.000;2024-02-15T08:27:16;21.88;;;11.68;;
44366;SDS011;30086;57.660;12.000;2024-02-15T08:29:45;19.73;;;10.57;;
44366;SDS011;30086;57.660;12.000;2024-02-15T08:32:16;21.05;;;11.07;;
44366;SDS011;30086;57.660;12.000;2024-02-15T08:34:42;22.45;;;11.40;;
44366;SDS011;30086;57.660;12.000;2024-02-15T08:37:16;22.38;;;12.45;;
44366;SDS011;30086;57.660;12.000;2024-02-15T08:39:54;24.25;;;11.88;;
44366;SDS011;30086;57.660;12.000;2024-02-15T08:42:47;21.05;;;11.80;;
44366;SDS011;30086;57.660;12.000;2024-02-15T08:45:16;19.42;;;10.75;;
44366;SDS011;30086;57.660;12.000;2024-02-15T08:47:49;21.90;;;11.15;;
44366;SDS011;30086;57.660;12.000;2024-02-15T08:50:38;23.30;;;11.63;;
44366;SDS011;30086;57.660;12.000;2024-02-15T08:53:07;22.90;;;11.85;;
44366;SDS011;30086;57.660;12.000;2024-02-15T08:55:43;20.83;;;12.02;;
44366;SDS011;30086;57.660;12.000;2024-02-15T08:58:13;22.40;;;11.43;;
44366;SDS011;30086;57.660;12.000;2024-02-15T09:00:42;19.90;;;11.20;;
44366;SDS011;30086;57.660;12.000;2024-02-15T09:03:29;19.88;;;10.60;;
44366;SDS011;30086;57.660;12.000;2024-02-15T09:06:11;19.58;;;11.07;;
44366;SDS011;30086;57.660;12.000;2024-02-15T09:08:38;19.73;;;10.55;;
44366;SDS011;30086;57.660;12.000;2024-02-15T09:11:33;21.15;;;10.93;;
44366;SDS011;30086;57.660;12.000;2024-02-15T09:14:07;19.63;;;10.68;;
44366;SDS011;30086;57.660;12.000;2024-02-15T09:16:40;16.77;;;10.02;;
44366;SDS011;30086;57.660;12.000;2024-02-15T09:19:28;16.98;;;9.75;;
44366;SDS011;30086;57.660;12.000;2024-02-15T09:22:34;18.08;;;9.85;;
44366;SDS011;30086;57.660;12.000;2024-02-15T09:25:07;19.15;;;10.40;;
44366;SDS011;30086;57.660;12.000;2024-02-15T09:27:36;17.48;;;10.18;;
44366;SDS011;30086;57.660;12.000;2024-02-15T09:30:23;17.67;;;9.88;;
44366;SDS011;30086;57.660;12.000;2024-02-15T09:32:56;15.52;;;9.02;;
44366;SDS011;30086;57.660;12.000;2024-02-15T09:35:26;16.23;;;9.97;;
44366;SDS011;30086;57.660;12.000;2024-02-15T09:38:32;16.05;;;8.95;;
44366;SDS011;30086;57.660;12.000;2024-02-15T09:41:01;17.33;;;9.77;;
44366;SDS011;30086;57.660;12.000;2024-02-15T09:44:09;15.45;;;9.10;;
44366;SDS011;30086;57.660;12.000;2024-02-15T09:46:47;14.93;;;8.57;;
44366;SDS011;30086;57.660;12.000;2024-02-15T09:49:53;18.33;;;10.18;;
44366;SDS011;30086;57.660;12.000;2024-02-15T09:52:31;16.35;;;9.70;;
44366;SDS011;30086;57.660;12.000;2024-02-15T09:55:02;15.00;;;9.27;;
44366;SDS011;30086;57.660;12.000;2024-02-15T09:57:49;17.50;;;10.07;;
44366;SDS011;30086;57.660;12.000;2024-02-15T10:00:43;16.00;;;9.25;;
44366;SDS011;30086;57.660;12.000;2024-02-15T10:03:32;13.13;;;8.38;;
44366;SDS011;30086;57.660;12.000;2024-02-15T10:06:00;14.23;;;8.60;;
44366;SDS011;30086;57.660;12.000;2024-02-15T10:08:26;14.40;;;8.48;;
44366;SDS011;30086;57.660;12.000;2024-02-15T10:11:14;14.80;;;8.95;;
44366;SDS011;30086;57.660;12.000;2024-02-15T10:13:42;15.98;;;9.10;;
44366;SDS011;30086;57.660;12.000;2024-02-15T10:16:41;15.00;;;8.68;;
44366;SDS011;30086;57.660;12.000;2024-02-15T10:19:10;13.02;;;7.90;;
44366;SDS011;30086;57.660;12.000;2024-02-15T10:22:05;11.75;;;7.85;;
44366;SDS011;30086;57.660;12.000;2024-02-15T10:25:10;13.40;;;7.93;;
44366;SDS011;30086;57.660;12.000;2024-02-15T10:27:39;14.68;;;7.90;;
44366;SDS011;30086;57.660;12.000;2024-02-15T10:30:25;12.63;;;7.97;;
44366;SDS011;30086;57.660;12.000;2024-02-15T10:33:06;13.27;;;8.50;;
44366;SDS011;30086;57.660;12.000;2024-02-15T10:35:42;13.50;;;8.13;;
44366;SDS011;30086;57.660;12.000;2024-02-15T10:38:10;13.05;;;7.78;;
44366;SDS011;30086;57.660;12.000;2024-02-15T10:41:06;13.05;;;8.10;;
44366;SDS011;30086;57.660;12.000;2024-02-15T10:43:34;10.80;;;6.85;;
44366;SDS011;30086;57.660;12.000;2024-02-15T10:46:06;12.60;;;7.40;;
44366;SDS011;30086;57.660;12.000;2024-02-15T10:48:55;10.02;;;7.18;;
44366;SDS011;30086;57.660;12.000;2024-02-15T10:51:25;12.65;;;7.60;;
44366;SDS011;30086;57.660;12.000;2024-02-15T10:54:06;10.23;;;6.63;;
44366;SDS011;30086;57.660;12.000;2024-02-15T10:57:09;9.55;;;6.78;;
44366;SDS011;30086;57.660;12.000;2024-02-15T10:59:43;10.05;;;7.30;;
44366;SDS011;30086;57.660;12.000;2024-02-15T11:03:02;11.18;;;6.70;;
44366;SDS011;30086;57.660;12.000;2024-02-15T11:05:31;9.27;;;6.30;;
44366;SDS011;30086;57.660;12.000;2024-02-15T11:08:01;9.90;;;6.15;;
44366;SDS011;30086;57.660;12.000;2024-02-15T11:10:35;9.48;;;6.43;;
44366;SDS011;30086;57.660;12.000;2024-02-15T11:13:03;9.93;;;7.07;;
44366;SDS011;30086;57.660;12.000;2024-02-15T11:15:49;8.18;;;5.38;;
44366;SDS011;30086;57.660;12.000;2024-02-15T11:18:41;9.23;;;6.13;;
44366;SDS011;30086;57.660;12.000;2024-02-15T11:24:24;9.90;;;6.38;;
44366;SDS011;30086;57.660;12.000;2024-02-15T11:27:11;7.85;;;5.55;;
44366;SDS011;30086;57.660;12.000;2024-02-15T11:32:42;11.20;;;5.80;;
44366;SDS011;30086;57.660;12.000;2024-02-15T11:35:35;8.88;;;6.05;;
44366;SDS011;30086;57.660;12.000;2024-02-15T11:38:47;9.65;;;6.15;;
44366;SDS011;30086;57.660;12.000;2024-02-15T11:41:19;9.73;;;6.35;;
44366;SDS011;30086;57.660;12.000;2024-02-15T11:43:53;10.23;;;7.18;;
44366;SDS011;30086;57.660;12.000;2024-02-15T11:46:30;11.18;;;6.30;;
44366;SDS011;30086;57.660;12.000;2024-02-15T11:49:07;11.82;;;6.93;;
44366;SDS011;30086;57.660;12.000;2024-02-15T11:51:37;11.95;;;6.65;;
44366;SDS011;30086;57.660;12.000;2024-02-15T11:54:10;10.30;;;6.15;;
44366;SDS011;30086;57.660;12.000;2024-02-15T11:56:58;9.73;;;5.70;;
44366;SDS011;30086;57.660;12.000;2024-02-15T11:59:38;9.27;;;6.72;;
44366;SDS011;30086;57.660;12.000;2024-02-15T12:02:18;9.65;;;6.90;;
44366;SDS011;30086;57.660;12.000;2024-02-15T12:05:03;11.18;;;7.28;;
44366;SDS011;30086;57.660;12.000;2024-02-15T12:07:48;9.27;;;6.32;;
44366;SDS011;30086;57.660;12.000;2024-02-15T12:10:36;8.90;;;5.93;;
44366;SDS011;30086;57.660;12.000;2024-02-15T12:13:24;7.57;;;5.85;;
44366;SDS011;30086;57.660;12.000;2024-02-15T12:16:09;9.95;;;7.15;;
44366;SDS011;30086;57.660;12.000;2024-02-15T12:19:01;9.68;;;6.28;;
44366;SDS011;30086;57.660;12.000;2024-02-15T12:21:29;11.65;;;6.35;;
44366;SDS011;30086;57.660;12.000;2024-02-15T12:23:56;9.30;;;6.28;;
44366;SDS011;30086;57.660;12.000;2024-02-15T12:28:58;9.68;;;6.80;;
44366;SDS011;30086;57.660;12.000;2024-02-15T12:31:32;9.45;;;5.45;;
44366;SDS011;30086;57.660;12.000;2024-02-15T12:34:34;9.70;;;6.22;;
44366;SDS011;30086;57.660;12.000;2024-02-15T12:37:06;8.73;;;5.28;;
44366;SDS011;30086;57.660;12.000;2024-02-15T12:39:40;8.77;;;6.28;;
44366;SDS011;30086;57.660;12.000;2024-02-15T12:42:12;10.23;;;6.20;;
44366;SDS011;30086;57.660;12.000;2024-02-15T12:44:44;8.20;;;6.07;;
44366;SDS011;30086;57.660;12.000;2024-02-15T12:47:38;8.60;;;5.40;;
44366;SDS011;30086;57.660;12.000;2024-02-15T12:50:33;6.87;;;5.47;;
44366;SDS011;30086;57.660;12.000;2024-02-15T12:53:25;8.15;;;5.65;;
44366;SDS011;30086;57.660;12.000;2024-02-15T12:56:01;8.02;;;5.80;;
44366;SDS011;30086;57.660;12.000;2024-02-15T12:59:10;7.50;;;5.72;;
44366;SDS011;30086;57.660;12.000;2024-02-15T13:02:00;7.63;;;5.00;;
44366;SDS011;30086;57.660;12.000;2024-02-15T13:04:49;7.93;;;4.82;;
44366;SDS011;30086;57.660;12.000;2024-02-15T13:07:15;7.32;;;5.20;;
44366;SDS011;30086;57.660;12.000;2024-02-15T13:10:06;6.03;;;4.63;;
44366;SDS011;30086;57.660;12.000;2024-02-15T13:12:57;8.88;;;4.70;;
44366;SDS011;30086;57.660;12.000;2024-02-15T13:15:43;8.73;;;5.38;;
44366;SDS011;30086;57.660;12.000;2024-02-15T13:18:09;7.47;;;5.32;;
44366;SDS011;30086;57.660;12.000;2024-02-15T13:20:42;7.00;;;4.85;;
44366;SDS011;30086;57.660;12.000;2024-02-15T13:23:11;8.30;;;5.55;;
44366;SDS011;30086;57.660;12.000;2024-02-15T13:25:50;6.45;;;4.55;;
44366;SDS011;30086;57.660;12.000;2024-02-15T13:28:42;5.70;;;4.20;;
44366;SDS011;30086;57.660;12.000;2024-02-15T13:31:11;6.30;;;4.38;;
44366;SDS011;30086;57.660;12.000;2024-02-15T13:34:05;9.87;;;4.83;;
44366;SDS011;30086;57.660;12.000;2024-02-15T13:36:32;5.10;;;4.40;;
44366;SDS011;30086;57.660;12.000;2024-02-15T13:39:15;4.97;;;4.00;;
44366;SDS011;30086;57.660;12.000;2024-02-15T13:42:04;9.48;;;4.30;;
44366;SDS011;30086;57.660;12.000;2024-02-15T13:44:57;5.43;;;4.63;;
44366;SDS011;30086;57.660;12.000;2024-02-15T13:47:45;6.70;;;5.03;;
44366;SDS011;30086;57.660;12.000;2024-02-15T13:50:30;5.70;;;4.15;;
44366;SDS011;30086;57.660;12.000;2024-02-15T13:53:42;5.10;;;4.05;;
44366;SDS011;30086;57.660;12.000;2024-02-15T13:56:14;5.85;;;4.43;;
44366;SDS011;30086;57.660;12.000;2024-02-15T13:58:51;6.93;;;4.30;;
44366;SDS011;30086;57.660;12.000;2024-02-15T14:01:37;4.55;;;3.95;;
44366;SDS011;30086;57.660;12.000;2024-02-15T14:04:15;4.75;;;3.75;;
44366;SDS011;30086;57.660;12.000;2024-02-15T14:06:42;4.53;;;3.55;;
44366;SDS011;30086;57.660;12.000;2024-02-15T14:09:18;5.93;;;3.97;;
44366;SDS011;30086;57.660;12.000;2024-02-15T14:12:04;5.15;;;3.70;;
44366;SDS011;30086;57.660;12.000;2024-02-15T14:15:26;5.72;;;4.07;;
44366;SDS011;30086;57.660;12.000;2024-02-15T14:17:55;4.93;;;3.92;;
44366;SDS011;30086;57.660;12.000;2024-02-15T14:20:25;5.18;;;3.88;;
44366;SDS011;30086;57.660;12.000;2024-02-15T14:23:15;5.60;;;3.55;;
44366;SDS011;30086;57.660;12.000;2024-02-15T14:26:05;5.78;;;4.50;;
44366;SDS011;30086;57.660;12.000;2024-02-15T14:28:38;7.40;;;3.95;;
44366;SDS011;30086;57.660;12.000;2024-02-15T14:31:27;5.15;;;3.70;;
44366;SDS011;30086;57.660;12.000;2024-02-15T14:34:11;4.60;;;3.50;;
44366;SDS011;30086;57.660;12.000;2024-02-15T14:36:49;4.97;;;3.05;;
44366;SDS011;30086;57.660;12.000;2024-02-15T14:39:32;4.22;;;3.00;;
44366;SDS011;30086;57.660;12.000;2024-02-15T14:42:02;3.85;;;3.13;;
44366;SDS011;30086;57.660;12.000;2024-02-15T14:44:43;4.05;;;3.17;;
44366;SDS011;30086;57.660;12.000;2024-02-15T14:47:31;4.45;;;3.22;;
44366;SDS011;30086;57.660;12.000;2024-02-15T14:50:02;4.50;;;3.47;;
44366;SDS011;30086;57.660;12.000;2024-02-15T14:52:48;3.78;;;3.15;;
44366;SDS011;30086;57.660;12.000;2024-02-15T14:55:47;3.50;;;2.67;;
44366;SDS011;30086;57.660;12.000;2024-02-15T14:58:39;4.68;;;3.20;;
44366;SDS011;30086;57.660;12.000;2024-02-15T15:01:38;4.20;;;3.75;;
44366;SDS011;30086;57.660;12.000;2024-02-15T15:04:34;3.58;;;3.15;;
44366;SDS011;30086;57.660;12.000;2024-02-15T15:07:20;3.85;;;3.20;;
44366;SDS011;30086;57.660;12.000;2024-02-15T15:10:05;4.65;;;3.40;;
44366;SDS011;30086;57.660;12.000;2024-02-15T15:12:50;4.10;;;3.20;;
44366;SDS011;30086;57.660;12.000;2024-02-15T15:15:36;4.10;;;3.58;;
44366;SDS011;30086;57.660;12.000;2024-02-15T15:18:06;5.65;;;3.40;;
44366;SDS011;30086;57.660;12.000;2024-02-15T15:20:33;3.47;;;2.90;;
44366;SDS011;30086;57.660;12.000;2024-02-15T15:23:19;3.83;;;3.28;;
44366;SDS011;30086;57.660;12.000;2024-02-15T15:26:03;3.33;;;2.88;;
44366;SDS011;30086;57.660;12.000;2024-02-15T15:28:55;3.67;;;3.00;;
44366;SDS011;30086;57.660;12.000;2024-02-15T15:31:25;4.15;;;3.22;;
44366;SDS011;30086;57.660;12.000;2024-02-15T15:34:13;3.67;;;2.83;;
44366;SDS011;30086;57.660;12.000;2024-02-15T15:36:42;3.75;;;2.67;;
44366;SDS011;30086;57.660;12.000;2024-02-15T15:39:15;4.47;;;2.97;;
44366;SDS011;30086;57.660;12.000;2024-02-15T15:42:01;5.22;;;3.10;;
44366;SDS011;30086;57.660;12.000;2024-02-15T15:44:27;6.32;;;3.35;;
44366;SDS011;30086;57.660;12.000;2024-02-15T15:46:55;4.47;;;3.20;;